sensor_id;sensor_type;location;lat;lon;timestamp;P1;durP1;ratioP1;P2;durP2;ratioP2
2756;SDS011;1386;50.862;6.494;2023-07-28T05:10:37;3.10;;;0.93;;
2756;SDS011;1386;50.862;6.494;2023-07-28T05:13:04;1.00;;;0.80;;
2756;SDS011;1386;50.862;6.494;2023-07-28T05:15:45;1.27;;;0.80;;
2756;SDS011;1386;50.862;6.494;2023-07-28T05:18:11;1.20;;;0.73;;
2756;SDS011;1386;50.862;6.494;2023-07-28T05:20:38;1.10;;;0.73;;
2756;SDS011;1386;50.862;6.494;2023-07-28T05:23:11;1.67;;;0.70;;
2756;SDS011;1386;50.862;6.494;2023-07-28T05:25:39;1.63;;;0.60;;
2756;SDS011;1386;50.862;6.494;2023-07-28T05:28:07;1.10;;;0.80;;
2756;SDS011;1386;50.862;6.494;2023-07-28T05:30:42;1.00;;;0.90;;
2756;SDS011;1386;50.862;6.494;2023-07-28T05:33:17;3.73;;;1.00;;
2756;SDS011;1386;50.862;6.494;2023-07-28T05:36:05;2.20;;;0.90;;
2756;SDS011;1386;50.862;6.494;2023-07-28T05:38:33;0.97;;;0.87;;
2756;SDS011;1386;50.862;6.494;2023-07-28T05:44:11;0.80;;;0.80;;
2756;SDS011;1386;50.862;6.494;2023-07-28T05:46:44;1.47;;;1.33;;
2756;SDS011;1386;50.862;6.494;2023-07-28T05:49:10;1.37;;;1.07;;
2756;SDS011;1386;50.862;6.494;2023-07-28T05:51:37;1.43;;;0.80;;
2756;SDS011;1386;50.862;6.494;2023-07-28T05:54:17;1.20;;;1.07;;
2756;SDS011;1386;50.862;6.494;2023-07-28T05:56:56;1.13;;;0.90;;
2756;SDS011;1386;50.862;6.494;2023-07-28T05:59:34;1.57;;;1.10;;
2756;SDS011;1386;50.862;6.494;2023-07-28T06:02:01;2.03;;;1.43;;
2756;SDS011;1386;50.862;6.494;2023-07-28T06:04:28;1.47;;;1.30;;
2756;SDS011;1386;50.862;6.494;2023-07-28T06:06:58;1.37;;;1.20;;
2756;SDS011;1386;50.862;6.494;2023-07-28T06:09:42;1.90;;;1.23;;
2756;SDS011;1386;50.862;6.494;2023-07-28T06:12:24;4.53;;;1.80;;
2756;SDS011;1386;50.862;6.494;2023-07-28T06:14:53;2.87;;;1.70;;
2756;SDS011;1386;50.862;6.494;2023-07-28T06:17:23;4.03;;;1.97;;
2756;SDS011;1386;50.862;6.494;2023-07-28T06:19:52;2.90;;;1.80;;
2756;SDS011;1386;50.862;6.494;2023-07-28T06:22:37;2.03;;;1.83;;
2756;SDS011;1386;50.862;6.494;2023-07-28T06:25:17;4.13;;;1.50;;
2756;SDS011;1386;50.862;6.494;2023-07-28T06:27:48;3.47;;;2.00;;
2756;SDS011;1386;50.862;6.494;2023-07-28T06:30:15;2.43;;;2.23;;
2756;SDS011;1386;50.862;6.494;2023-07-28T06:32:47;3.90;;;1.90;;
2756;SDS011;1386;50.862;6.494;2023-07-28T06:35:13;2.40;;;2.20;;
2756;SDS011;1386;50.862;6.494;2023-07-28T06:37:46;2.50;;;2.03;;
2756;SDS011;1386;50.862;6.494;2023-07-28T06:41:09;2.70;;;1.90;;
2756;SDS011;1386;50.862;6.494;2023-07-28T06:43:36;2.43;;;1.80;;
2756;SDS011;1386;50.862;6.494;2023-07-28T06:46:04;2.37;;;2.17;;
2756;SDS011;1386;50.862;6.494;2023-07-28T06:48:31;1.83;;;1.73;;
2756;SDS011;1386;50.862;6.494;2023-07-28T06:51:03;4.30;;;2.23;;
2756;SDS011;1386;50.862;6.494;2023-07-28T06:53:30;2.67;;;1.60;;
2756;SDS011;1386;50.862;6.494;2023-07-28T06:55:56;4.50;;;2.03;;
2756;SDS011;1386;50.862;6.494;2023-07-28T06:58:25;2.40;;;1.90;;
2756;SDS011;1386;50.862;6.494;2023-07-28T07:00:53;3.57;;;1.73;;
2756;SDS011;1386;50.862;6.494;2023-07-28T07:03:21;3.90;;;2.33;;
2756;SDS011;1386;50.862;6.494;2023-07-28T07:06:00;1.93;;;1.77;;
2756;SDS011;1386;50.862;6.494;2023-07-28T07:08:27;1.70;;;1.60;;
2756;SDS011;1386;50.862;6.494;2023-07-28T07:10:54;2.00;;;1.80;;
2756;SDS011;1386;50.862;6.494;2023-07-28T07:13:21;2.17;;;1.53;;
2756;SDS011;1386;50.862;6.494;2023-07-28T07:15:54;1.83;;;1.30;;
2756;SDS011;1386;50.862;6.494;2023-07-28T07:18:21;2.30;;;1.80;;
2756;SDS011;1386;50.862;6.494;2023-07-28T07:20:48;2.03;;;1.60;;
2756;SDS011;1386;50.862;6.494;2023-07-28T07:23:18;2.07;;;1.53;;
2756;SDS011;1386;50.862;6.494;2023-07-28T07:25:44;1.93;;;1.70;;
2756;SDS011;1386;50.862;6.494;2023-07-28T07:28:14;1.60;;;1.50;;
2756;SDS011;1386;50.862;6.494;2023-07-28T07:30:47;1.60;;;1.47;;
2756;SDS011;1386;50.862;6.494;2023-07-28T07:33:15;1.50;;;1.40;;
2756;SDS011;1386;50.862;6.494;2023-07-28T07:35:44;1.60;;;1.50;;
2756;SDS011;1386;50.862;6.494;2023-07-28T07:38:25;1.43;;;1.23;;
2756;SDS011;1386;50.862;6.494;2023-07-28T07:40:52;2.83;;;1.80;;
2756;SDS011;1386;50.862;6.494;2023-07-28T07:43:22;1.67;;;1.30;;
2756;SDS011;1386;50.862;6.494;2023-07-28T07:45:49;2.90;;;1.70;;
2756;SDS011;1386;50.862;6.494;2023-07-28T07:48:20;1.80;;;1.47;;
2756;SDS011;1386;50.862;6.494;2023-07-28T07:50:47;1.90;;;1.50;;
2756;SDS011;1386;50.862;6.494;2023-07-28T07:53:14;1.70;;;1.53;;
2756;SDS011;1386;50.862;6.494;2023-07-28T07:55:40;4.33;;;1.53;;
2756;SDS011;1386;50.862;6.494;2023-07-28T07:58:07;1.80;;;1.33;;
2756;SDS011;1386;50.862;6.494;2023-07-28T08:00:35;1.50;;;1.30;;
2756;SDS011;1386;50.862;6.494;2023-07-28T08:03:05;1.60;;;1.50;;
2756;SDS011;1386;50.862;6.494;2023-07-28T08:05:36;1.53;;;1.43;;
2756;SDS011;1386;50.862;6.494;2023-07-28T08:08:03;1.87;;;1.67;;
2756;SDS011;1386;50.862;6.494;2023-07-28T08:10:32;2.30;;;2.10;;
2756;SDS011;1386;50.862;6.494;2023-07-28T08:12:59;3.87;;;1.70;;
2756;SDS011;1386;50.862;6.494;2023-07-28T08:15:29;2.90;;;1.83;;
2756;SDS011;1386;50.862;6.494;2023-07-28T08:17:55;1.77;;;1.50;;
2756;SDS011;1386;50.862;6.494;2023-07-28T08:20:22;1.50;;;1.40;;
2756;SDS011;1386;50.862;6.494;2023-07-28T12:22:23;0.90;;;0.70;;
2756;SDS011;1386;50.862;6.494;2023-07-28T12:24:50;2.40;;;1.23;;
2756;SDS011;1386;50.862;6.494;2023-07-28T12:27:20;1.20;;;0.90;;
2756;SDS011;1386;50.862;6.494;2023-07-28T12:29:49;0.97;;;0.70;;
2756;SDS011;1386;50.862;6.494;2023-07-28T12:32:19;0.97;;;0.80;;
2756;SDS011;1386;50.862;6.494;2023-07-28T12:34:50;0.90;;;0.80;;
2756;SDS011;1386;50.862;6.494;2023-07-28T12:37:18;1.40;;;0.80;;
2756;SDS011;1386;50.862;6.494;2023-07-28T12:39:49;1.03;;;0.93;;
2756;SDS011;1386;50.862;6.494;2023-07-28T12:42:16;1.40;;;0.80;;
2756;SDS011;1386;50.862;6.494;2023-07-28T12:44:43;1.10;;;0.77;;
2756;SDS011;1386;50.862;6.494;2023-07-28T12:47:10;1.40;;;0.80;;
2756;SDS011;1386;50.862;6.494;2023-07-28T12:49:37;2.07;;;0.90;;
2756;SDS011;1386;50.862;6.494;2023-07-28T12:52:05;0.80;;;0.50;;
2756;SDS011;1386;50.862;6.494;2023-07-28T12:54:34;1.63;;;0.60;;
2756;SDS011;1386;50.862;6.494;2023-07-28T12:57:03;2.50;;;0.63;;
2756;SDS011;1386;50.862;6.494;2023-07-28T12:59:34;0.90;;;0.80;;
2756;SDS011;1386;50.862;6.494;2023-07-28T13:02:04;1.37;;;1.10;;
2756;SDS011;1386;50.862;6.494;2023-07-28T13:04:31;1.00;;;0.60;;
2756;SDS011;1386;50.862;6.494;2023-07-28T13:06:57;0.90;;;0.60;;
2756;SDS011;1386;50.862;6.494;2023-07-28T13:09:26;1.00;;;0.60;;
2756;SDS011;1386;50.862;6.494;2023-07-28T13:11:53;0.90;;;0.70;;
2756;SDS011;1386;50.862;6.494;2023-07-28T13:14:21;0.80;;;0.50;;
2756;SDS011;1386;50.862;6.494;2023-07-28T13:16:48;0.80;;;0.50;;
2756;SDS011;1386;50.862;6.494;2023-07-28T13:19:15;0.93;;;0.70;;
2756;SDS011;1386;50.862;6.494;2023-07-28T13:21:42;1.43;;;0.80;;
2756;SDS011;1386;50.862;6.494;2023-07-28T13:24:12;1.30;;;0.50;;
2756;SDS011;1386;50.862;6.494;2023-07-28T13:26:39;0.80;;;0.50;;
2756;SDS011;1386;50.862;6.494;2023-07-28T13:29:06;0.90;;;0.50;;
2756;SDS011;1386;50.862;6.494;2023-07-28T13:31:36;1.27;;;0.60;;
2756;SDS011;1386;50.862;6.494;2023-07-28T13:34:03;1.10;;;0.50;;
2756;SDS011;1386;50.862;6.494;2023-07-28T13:36:30;0.70;;;0.50;;
2756;SDS011;1386;50.862;6.494;2023-07-28T13:38:57;2.00;;;0.50;;
2756;SDS011;1386;50.862;6.494;2023-07-28T13:41:24;0.70;;;0.40;;
2756;SDS011;1386;50.862;6.494;2023-07-28T13:43:51;1.43;;;0.40;;
2756;SDS011;1386;50.862;6.494;2023-07-28T13:46:18;0.70;;;0.50;;
2756;SDS011;1386;50.862;6.494;2023-07-28T13:48:46;0.70;;;0.50;;
2756;SDS011;1386;50.862;6.494;2023-07-28T13:51:13;0.90;;;0.50;;
2756;SDS011;1386;50.862;6.494;2023-07-28T13:53:40;1.20;;;0.60;;
2756;SDS011;1386;50.862;6.494;2023-07-28T13:56:06;1.00;;;0.60;;
2756;SDS011;1386;50.862;6.494;2023-07-28T13:58:33;0.80;;;0.50;;
2756;SDS011;1386;50.862;6.494;2023-07-28T14:01:04;1.20;;;0.80;;
2756;SDS011;1386;50.862;6.494;2023-07-28T14:03:31;0.90;;;0.80;;
2756;SDS011;1386;50.862;6.494;2023-07-28T14:05:59;1.00;;;0.90;;
2756;SDS011;1386;50.862;6.494;2023-07-28T14:08:26;1.00;;;0.90;;
2756;SDS011;1386;50.862;6.494;2023-07-28T14:10:53;1.00;;;0.90;;
2756;SDS011;1386;50.862;6.494;2023-07-28T14:13:20;1.10;;;1.00;;
2756;SDS011;1386;50.862;6.494;2023-07-28T14:15:48;0.90;;;0.80;;
2756;SDS011;1386;50.862;6.494;2023-07-28T14:18:18;0.90;;;0.80;;
2756;SDS011;1386;50.862;6.494;2023-07-28T14:20:48;1.57;;;0.63;;
2756;SDS011;1386;50.862;6.494;2023-07-28T14:23:23;0.80;;;0.50;;
2756;SDS011;1386;50.862;6.494;2023-07-28T14:25:51;0.80;;;0.50;;
2756;SDS011;1386;50.862;6.494;2023-07-28T14:28:19;0.70;;;0.50;;
2756;SDS011;1386;50.862;6.494;2023-07-28T14:30:46;1.10;;;0.50;;
2756;SDS011;1386;50.862;6.494;2023-07-28T14:33:16;0.80;;;0.50;;
2756;SDS011;1386;50.862;6.494;2023-07-28T14:35:44;0.90;;;0.50;;
2756;SDS011;1386;50.862;6.494;2023-07-28T14:38:13;1.00;;;0.57;;
2756;SDS011;1386;50.862;6.494;2023-07-28T14:40:51;2.80;;;0.60;;
2756;SDS011;1386;50.862;6.494;2023-07-28T14:43:18;0.90;;;0.50;;
2756;SDS011;1386;50.862;6.494;2023-07-28T14:45:45;0.80;;;0.53;;
2756;SDS011;1386;50.862;6.494;2023-07-28T14:48:13;0.90;;;0.53;;
2756;SDS011;1386;50.862;6.494;2023-07-28T14:50:42;1.63;;;0.70;;
2756;SDS011;1386;50.862;6.494;2023-07-28T14:53:27;0.87;;;0.60;;
2756;SDS011;1386;50.862;6.494;2023-07-28T14:56:00;1.10;;;0.70;;
2756;SDS011;1386;50.862;6.494;2023-07-28T14:58:27;1.03;;;0.73;;
2756;SDS011;1386;50.862;6.494;2023-07-28T15:00:55;0.90;;;0.53;;
2756;SDS011;1386;50.862;6.494;2023-07-28T15:03:22;0.87;;;0.60;;
2756;SDS011;1386;50.862;6.494;2023-07-28T15:05:49;1.53;;;0.67;;
2756;SDS011;1386;50.862;6.494;2023-07-28T15:08:16;1.00;;;0.70;;
2756;SDS011;1386;50.862;6.494;2023-07-28T15:10:43;1.97;;;0.70;;
2756;SDS011;1386;50.862;6.494;2023-07-28T15:13:11;1.10;;;0.80;;
2756;SDS011;1386;50.862;6.494;2023-07-28T15:15:38;0.90;;;0.60;;
2756;SDS011;1386;50.862;6.494;2023-07-28T15:18:07;0.90;;;0.80;;
2756;SDS011;1386;50.862;6.494;2023-07-28T15:20:36;1.97;;;0.77;;
2756;SDS011;1386;50.862;6.494;2023-07-28T15:23:03;0.80;;;0.60;;
2756;SDS011;1386;50.862;6.494;2023-07-28T15:25:30;1.20;;;0.90;;
2756;SDS011;1386;50.862;6.494;2023-07-28T15:27:58;0.80;;;0.60;;
2756;SDS011;1386;50.862;6.494;2023-07-28T15:30:29;0.90;;;0.70;;
2756;SDS011;1386;50.862;6.494;2023-07-28T15:33:00;1.77;;;0.77;;
2756;SDS011;1386;50.862;6.494;2023-07-28T15:35:27;1.00;;;0.80;;
2756;SDS011;1386;50.862;6.494;2023-07-28T15:37:54;1.03;;;0.80;;
2756;SDS011;1386;50.862;6.494;2023-07-28T15:40:24;1.00;;;0.80;;
2756;SDS011;1386;50.862;6.494;2023-07-28T15:43:17;1.17;;;0.93;;
2756;SDS011;1386;50.862;6.494;2023-07-28T15:45:49;1.60;;;0.80;;
2756;SDS011;1386;50.862;6.494;2023-07-28T15:48:23;1.37;;;1.00;;
2756;SDS011;1386;50.862;6.494;2023-07-28T15:50:52;1.67;;;1.00;;
2756;SDS011;1386;50.862;6.494;2023-07-28T15:53:19;0.93;;;0.80;;
2756;SDS011;1386;50.862;6.494;2023-07-28T15:55:51;1.20;;;1.00;;
2756;SDS011;1386;50.862;6.494;2023-07-28T15:58:18;2.10;;;0.97;;
2756;SDS011;1386;50.862;6.494;2023-07-28T16:00:45;1.33;;;1.07;;
2756;SDS011;1386;50.862;6.494;2023-07-28T16:03:13;1.40;;;1.00;;
2756;SDS011;1386;50.862;6.494;2023-07-28T16:05:40;1.10;;;0.97;;
2756;SDS011;1386;50.862;6.494;2023-07-28T16:08:11;1.17;;;0.80;;
2756;SDS011;1386;50.862;6.494;2023-07-28T16:10:38;2.03;;;1.07;;
2756;SDS011;1386;50.862;6.494;2023-07-28T16:13:07;1.10;;;0.80;;
2756;SDS011;1386;50.862;6.494;2023-07-28T16:15:34;2.07;;;1.20;;
2756;SDS011;1386;50.862;6.494;2023-07-28T16:18:01;1.00;;;0.90;;
2756;SDS011;1386;50.862;6.494;2023-07-28T16:20:29;1.47;;;1.20;;
2756;SDS011;1386;50.862;6.494;2023-07-28T16:22:56;1.47;;;1.20;;
2756;SDS011;1386;50.862;6.494;2023-07-28T16:25:25;1.37;;;1.10;;
2756;SDS011;1386;50.862;6.494;2023-07-28T16:27:52;1.83;;;1.00;;
2756;SDS011;1386;50.862;6.494;2023-07-28T16:30:19;2.93;;;1.40;;
2756;SDS011;1386;50.862;6.494;2023-07-28T16:32:45;1.20;;;1.00;;
2756;SDS011;1386;50.862;6.494;2023-07-28T16:35:12;1.33;;;1.03;;
2756;SDS011;1386;50.862;6.494;2023-07-28T16:37:41;4.37;;;1.30;;
2756;SDS011;1386;50.862;6.494;2023-07-28T16:40:08;1.90;;;1.10;;
2756;SDS011;1386;50.862;6.494;2023-07-28T16:42:37;2.03;;;1.20;;
2756;SDS011;1386;50.862;6.494;2023-07-28T16:45:07;1.37;;;0.90;;
2756;SDS011;1386;50.862;6.494;2023-07-28T16:47:34;1.97;;;1.00;;
2756;SDS011;1386;50.862;6.494;2023-07-28T16:50:02;1.50;;;1.10;;
2756;SDS011;1386;50.862;6.494;2023-07-28T16:52:29;2.20;;;1.37;;
2756;SDS011;1386;50.862;6.494;2023-07-28T16:54:57;1.67;;;1.30;;
2756;SDS011;1386;50.862;6.494;2023-07-28T16:57:27;1.97;;;1.10;;
2756;SDS011;1386;50.862;6.494;2023-07-28T16:59:54;2.27;;;1.17;;
2756;SDS011;1386;50.862;6.494;2023-07-28T17:02:21;1.63;;;1.10;;
2756;SDS011;1386;50.862;6.494;2023-07-28T17:04:48;1.50;;;1.30;;
2756;SDS011;1386;50.862;6.494;2023-07-28T17:07:14;1.53;;;1.10;;
2756;SDS011;1386;50.862;6.494;2023-07-28T17:09:42;1.50;;;1.23;;
2756;SDS011;1386;50.862;6.494;2023-07-28T17:12:10;1.37;;;1.13;;
2756;SDS011;1386;50.862;6.494;2023-07-28T17:14:40;1.67;;;1.20;;
2756;SDS011;1386;50.862;6.494;2023-07-28T17:17:06;2.43;;;1.10;;
2756;SDS011;1386;50.862;6.494;2023-07-28T17:19:33;2.03;;;1.40;;
2756;SDS011;1386;50.862;6.494;2023-07-28T17:22:00;1.20;;;1.00;;
2756;SDS011;1386;50.862;6.494;2023-07-28T17:24:27;1.20;;;0.97;;
2756;SDS011;1386;50.862;6.494;2023-07-28T17:26:56;1.97;;;1.13;;
2756;SDS011;1386;50.862;6.494;2023-07-28T17:29:24;1.23;;;1.13;;
2756;SDS011;1386;50.862;6.494;2023-07-28T17:31:51;1.93;;;1.17;;
2756;SDS011;1386;50.862;6.494;2023-07-28T17:34:18;1.40;;;1.20;;
2756;SDS011;1386;50.862;6.494;2023-07-28T17:36:46;1.20;;;1.00;;
2756;SDS011;1386;50.862;6.494;2023-07-28T17:39:13;1.57;;;1.20;;
2756;SDS011;1386;50.862;6.494;2023-07-28T17:41:40;1.43;;;1.07;;
2756;SDS011;1386;50.862;6.494;2023-07-28T17:44:07;1.40;;;0.90;;
2756;SDS011;1386;50.862;6.494;2023-07-28T17:46:35;1.77;;;1.20;;
2756;SDS011;1386;50.862;6.494;2023-07-28T17:49:02;1.80;;;1.10;;
2756;SDS011;1386;50.862;6.494;2023-07-28T17:51:29;1.40;;;1.30;;
2756;SDS011;1386;50.862;6.494;2023-07-28T17:53:56;1.50;;;1.10;;
2756;SDS011;1386;50.862;6.494;2023-07-28T17:56:22;2.03;;;1.23;;
2756;SDS011;1386;50.862;6.494;2023-07-28T17:58:49;1.50;;;1.20;;
2756;SDS011;1386;50.862;6.494;2023-07-28T18:01:22;1.60;;;1.20;;
2756;SDS011;1386;50.862;6.494;2023-07-28T18:03:51;2.40;;;1.27;;
2756;SDS011;1386;50.862;6.494;2023-07-28T18:06:36;1.50;;;1.27;;
2756;SDS011;1386;50.862;6.494;2023-07-28T18:09:03;1.50;;;1.40;;
2756;SDS011;1386;50.862;6.494;2023-07-28T18:11:33;3.90;;;1.83;;
2756;SDS011;1386;50.862;6.494;2023-07-28T18:14:02;1.80;;;1.40;;
2756;SDS011;1386;50.862;6.494;2023-07-28T18:16:29;1.67;;;1.53;;
2756;SDS011;1386;50.862;6.494;2023-07-28T18:18:57;1.60;;;1.20;;
2756;SDS011;1386;50.862;6.494;2023-07-28T18:21:26;1.70;;;1.30;;
2756;SDS011;1386;50.862;6.494;2023-07-28T18:23:56;1.97;;;1.43;;
2756;SDS011;1386;50.862;6.494;2023-07-28T18:26:23;1.87;;;1.67;;
2756;SDS011;1386;50.862;6.494;2023-07-28T18:28:50;1.70;;;1.57;;
2756;SDS011;1386;50.862;6.494;2023-07-28T18:31:17;4.17;;;1.80;;
2756;SDS011;1386;50.862;6.494;2023-07-28T18:33:44;2.40;;;1.87;;
2756;SDS011;1386;50.862;6.494;2023-07-28T18:36:12;2.47;;;1.87;;
2756;SDS011;1386;50.862;6.494;2023-07-28T18:38:39;1.70;;;1.40;;
2756;SDS011;1386;50.862;6.494;2023-07-28T18:41:06;4.50;;;1.50;;
2756;SDS011;1386;50.862;6.494;2023-07-28T18:43:36;2.27;;;1.50;;
2756;SDS011;1386;50.862;6.494;2023-07-28T18:46:03;1.80;;;1.33;;
2756;SDS011;1386;50.862;6.494;2023-07-28T18:48:30;3.00;;;1.50;;
2756;SDS011;1386;50.862;6.494;2023-07-28T18:50:57;1.73;;;1.40;;
2756;SDS011;1386;50.862;6.494;2023-07-28T18:53:27;2.00;;;1.23;;
2756;SDS011;1386;50.862;6.494;2023-07-28T18:55:54;1.77;;;1.50;;
2756;SDS011;1386;50.862;6.494;2023-07-28T18:58:24;1.67;;;1.57;;
2756;SDS011;1386;50.862;6.494;2023-07-28T19:00:50;1.83;;;1.50;;
2756;SDS011;1386;50.862;6.494;2023-07-28T19:03:18;1.53;;;1.30;;
2756;SDS011;1386;50.862;6.494;2023-07-28T19:05:44;1.90;;;1.70;;
2756;SDS011;1386;50.862;6.494;2023-07-28T19:08:11;2.90;;;1.90;;
2756;SDS011;1386;50.862;6.494;2023-07-28T19:10:43;3.00;;;1.70;;
2756;SDS011;1386;50.862;6.494;2023-07-28T19:13:10;1.80;;;1.60;;
2756;SDS011;1386;50.862;6.494;2023-07-28T19:15:41;1.80;;;1.70;;
2756;SDS011;1386;50.862;6.494;2023-07-28T19:18:14;1.80;;;1.40;;
2756;SDS011;1386;50.862;6.494;2023-07-28T19:20:57;2.00;;;1.50;;
2756;SDS011;1386;50.862;6.494;2023-07-28T19:23:24;2.37;;;1.80;;
2756;SDS011;1386;50.862;6.494;2023-07-28T19:25:52;2.53;;;1.90;;
2756;SDS011;1386;50.862;6.494;2023-07-28T19:28:21;2.70;;;1.83;;
2756;SDS011;1386;50.862;6.494;2023-07-28T19:30:48;1.70;;;1.60;;
2756;SDS011;1386;50.862;6.494;2023-07-28T19:33:16;2.53;;;1.83;;
2756;SDS011;1386;50.862;6.494;2023-07-28T19:35:43;1.80;;;1.43;;
2756;SDS011;1386;50.862;6.494;2023-07-28T19:38:14;1.97;;;1.30;;
2756;SDS011;1386;50.862;6.494;2023-07-28T19:40:51;2.57;;;1.53;;
2756;SDS011;1386;50.862;6.494;2023-07-28T19:43:21;1.03;;;0.93;;
2756;SDS011;1386;50.862;6.494;2023-07-28T19:45:48;1.70;;;1.30;;
2756;SDS011;1386;50.862;6.494;2023-07-28T19:48:17;1.33;;;1.00;;
2756;SDS011;1386;50.862;6.494;2023-07-28T19:50:50;1.37;;;0.83;;
2756;SDS011;1386;50.862;6.494;2023-07-28T19:53:19;1.73;;;1.07;;
2756;SDS011;1386;50.862;6.494;2023-07-28T19:55:46;1.50;;;1.00;;
2756;SDS011;1386;50.862;6.494;2023-07-28T19:58:17;1.00;;;0.80;;
2756;SDS011;1386;50.862;6.494;2023-07-28T20:00:47;1.20;;;0.90;;
2756;SDS011;1386;50.862;6.494;2023-07-28T20:03:20;1.00;;;0.70;;
2756;SDS011;1386;50.862;6.494;2023-07-28T20:05:47;1.57;;;1.13;;
2756;SDS011;1386;50.862;6.494;2023-07-28T20:08:16;1.30;;;0.90;;
2756;SDS011;1386;50.862;6.494;2023-07-28T20:10:43;1.03;;;0.80;;
2756;SDS011;1386;50.862;6.494;2023-07-28T20:13:10;1.50;;;0.90;;
2756;SDS011;1386;50.862;6.494;2023-07-28T20:15:38;4.63;;;0.80;;
2756;SDS011;1386;50.862;6.494;2023-07-28T20:18:05;1.83;;;0.70;;
2756;SDS011;1386;50.862;6.494;2023-07-28T20:20:37;1.33;;;0.90;;
2756;SDS011;1386;50.862;6.494;2023-07-28T20:51:52;1.00;;;0.77;;
2756;SDS011;1386;50.862;6.494;2023-07-28T20:54:19;2.00;;;0.80;;
2756;SDS011;1386;50.862;6.494;2023-07-28T20:56:47;1.00;;;0.80;;
2756;SDS011;1386;50.862;6.494;2023-07-28T20:59:25;1.10;;;1.00;;
2756;SDS011;1386;50.862;6.494;2023-07-28T21:01:52;2.00;;;1.80;;
2756;SDS011;1386;50.862;6.494;2023-07-28T21:04:19;1.23;;;0.87;;
2756;SDS011;1386;50.862;6.494;2023-07-28T21:06:51;1.60;;;1.10;;
2756;SDS011;1386;50.862;6.494;2023-07-28T21:09:19;1.50;;;1.10;;
2756;SDS011;1386;50.862;6.494;2023-07-28T21:11:46;1.50;;;1.13;;
2756;SDS011;1386;50.862;6.494;2023-07-28T21:14:13;2.10;;;0.90;;
2756;SDS011;1386;50.862;6.494;2023-07-28T21:16:40;1.20;;;0.90;;
2756;SDS011;1386;50.862;6.494;2023-07-28T21:19:07;1.13;;;0.87;;
2756;SDS011;1386;50.862;6.494;2023-07-28T21:21:34;2.37;;;1.00;;
2756;SDS011;1386;50.862;6.494;2023-07-28T21:24:02;1.30;;;1.00;;
2756;SDS011;1386;50.862;6.494;2023-07-28T21:26:30;1.80;;;1.03;;
2756;SDS011;1386;50.862;6.494;2023-07-28T21:28:56;1.30;;;0.93;;
2756;SDS011;1386;50.862;6.494;2023-07-28T21:31:23;3.17;;;0.90;;
2756;SDS011;1386;50.862;6.494;2023-07-28T21:33:50;2.60;;;1.00;;
2756;SDS011;1386;50.862;6.494;2023-07-28T21:36:17;1.10;;;0.90;;
2756;SDS011;1386;50.862;6.494;2023-07-28T21:38:47;1.20;;;0.90;;
2756;SDS011;1386;50.862;6.494;2023-07-28T21:41:15;2.40;;;1.00;;
2756;SDS011;1386;50.862;6.494;2023-07-28T21:43:42;1.63;;;1.00;;
2756;SDS011;1386;50.862;6.494;2023-07-28T21:46:13;1.97;;;1.33;;
2756;SDS011;1386;50.862;6.494;2023-07-28T21:48:40;3.80;;;1.20;;
2756;SDS011;1386;50.862;6.494;2023-07-28T21:51:07;1.20;;;1.10;;
2756;SDS011;1386;50.862;6.494;2023-07-28T21:53:34;1.30;;;1.20;;
2756;SDS011;1386;50.862;6.494;2023-07-28T21:56:02;1.27;;;1.10;;
2756;SDS011;1386;50.862;6.494;2023-07-28T21:58:30;1.50;;;1.20;;
2756;SDS011;1386;50.862;6.494;2023-07-28T22:00:57;1.40;;;1.00;;
2756;SDS011;1386;50.862;6.494;2023-07-28T22:03:24;2.20;;;1.17;;
2756;SDS011;1386;50.862;6.494;2023-07-28T22:05:51;1.23;;;1.00;;
2756;SDS011;1386;50.862;6.494;2023-07-28T22:08:18;1.10;;;0.90;;
2756;SDS011;1386;50.862;6.494;2023-07-28T22:10:45;1.20;;;1.00;;
2756;SDS011;1386;50.862;6.494;2023-07-28T22:13:17;1.87;;;1.23;;
2756;SDS011;1386;50.862;6.494;2023-07-28T22:15:46;1.50;;;1.20;;
2756;SDS011;1386;50.862;6.494;2023-07-28T22:18:12;1.70;;;1.47;;
2756;SDS011;1386;50.862;6.494;2023-07-28T22:20:40;2.00;;;1.20;;
2756;SDS011;1386;50.862;6.494;2023-07-28T22:23:07;2.00;;;1.23;;
2756;SDS011;1386;50.862;6.494;2023-07-28T22:25:39;4.03;;;1.63;;
2756;SDS011;1386;50.862;6.494;2023-07-28T22:28:06;4.53;;;1.37;;
2756;SDS011;1386;50.862;6.494;2023-07-28T22:30:33;2.90;;;1.90;;
2756;SDS011;1386;50.862;6.494;2023-07-28T22:33:06;3.60;;;1.93;;
2756;SDS011;1386;50.862;6.494;2023-07-28T22:35:33;6.23;;;1.83;;
2756;SDS011;1386;50.862;6.494;2023-07-28T22:38:00;3.07;;;1.97;;
2756;SDS011;1386;50.862;6.494;2023-07-28T22:40:28;2.30;;;1.83;;
2756;SDS011;1386;50.862;6.494;2023-07-28T22:42:55;2.57;;;1.80;;
2756;SDS011;1386;50.862;6.494;2023-07-28T22:45:23;2.40;;;1.60;;
2756;SDS011;1386;50.862;6.494;2023-07-28T22:47:50;1.90;;;1.67;;
2756;SDS011;1386;50.862;6.494;2023-07-28T22:50:18;3.20;;;2.00;;
2756;SDS011;1386;50.862;6.494;2023-07-28T22:52:45;2.53;;;1.50;;
2756;SDS011;1386;50.862;6.494;2023-07-28T22:55:15;4.40;;;1.90;;
2756;SDS011;1386;50.862;6.494;2023-07-28T22:57:45;2.67;;;2.10;;
2756;SDS011;1386;50.862;6.494;2023-07-28T23:00:12;2.37;;;1.77;;
2756;SDS011;1386;50.862;6.494;2023-07-28T23:02:47;4.33;;;1.73;;
2756;SDS011;1386;50.862;6.494;2023-07-28T23:05:13;6.13;;;1.70;;
2756;SDS011;1386;50.862;6.494;2023-07-28T23:07:42;2.87;;;2.00;;
2756;SDS011;1386;50.862;6.494;2023-07-28T23:10:22;2.07;;;1.87;;
2756;SDS011;1386;50.862;6.494;2023-07-28T23:12:51;5.73;;;1.83;;
2756;SDS011;1386;50.862;6.494;2023-07-28T23:15:20;2.50;;;2.07;;
2756;SDS011;1386;50.862;6.494;2023-07-28T23:17:47;3.87;;;2.17;;
2756;SDS011;1386;50.862;6.494;2023-07-28T23:20:14;1.90;;;1.70;;
2756;SDS011;1386;50.862;6.494;2023-07-28T23:22:42;2.33;;;1.70;;
2756;SDS011;1386;50.862;6.494;2023-07-28T23:25:09;2.10;;;1.90;;
2756;SDS011;1386;50.862;6.494;2023-07-28T23:27:36;3.07;;;1.43;;
2756;SDS011;1386;50.862;6.494;2023-07-28T23:30:03;2.07;;;1.87;;
2756;SDS011;1386;50.862;6.494;2023-07-28T23:32:31;2.87;;;1.93;;
2756;SDS011;1386;50.862;6.494;2023-07-28T23:34:58;1.77;;;1.67;;
2756;SDS011;1386;50.862;6.494;2023-07-28T23:37:31;3.97;;;1.50;;
2756;SDS011;1386;50.862;6.494;2023-07-28T23:40:20;2.27;;;1.40;;
2756;SDS011;1386;50.862;6.494;2023-07-28T23:45:28;2.33;;;1.40;;
2756;SDS011;1386;50.862;6.494;2023-07-28T23:47:55;1.80;;;1.50;;
2756;SDS011;1386;50.862;6.494;2023-07-28T23:50:22;2.20;;;1.40;;
2756;SDS011;1386;50.862;6.494;2023-07-28T23:52:49;1.80;;;1.70;;
2756;SDS011;1386;50.862;6.494;2023-07-28T23:55:24;2.50;;;1.50;;
2756;SDS011;1386;50.862;6.494;2023-07-28T23:57:51;2.10;;;1.30;;
